createdAt,value
2017-08-17T00:01:05.269Z,68.20
2017-08-17T00:03:31.711Z,67.80
2017-08-17T00:05:58.110Z,67.20
2017-08-17T00:08:25.266Z,67.20
2017-08-17T00:10:52.403Z,67.40
2017-08-17T00:13:19.526Z,67.40
2017-08-17T00:15:45.930Z,67.40
2017-08-17T00:18:12.311Z,67.30
2017-08-17T00:20:38.726Z,67.30
2017-08-17T00:23:05.135Z,67.60
2017-08-17T00:25:31.560Z,68.10
2017-08-17T00:28:01.247Z,68.30
2017-08-17T00:30:27.902Z,67.90
2017-08-17T00:32:54.371Z,67.40
2017-08-17T00:35:23.002Z,67.30
2017-08-17T00:37:49.398Z,67.40
2017-08-17T00:40:15.822Z,67.60
2017-08-17T00:42:42.699Z,67.90
2017-08-17T00:45:09.861Z,67.50
2017-08-17T00:47:36.291Z,67.50
2017-08-17T00:50:02.734Z,67.60
2017-08-17T00:52:29.156Z,67.60
2017-08-17T00:54:55.599Z,68.00
2017-08-17T00:57:22.038Z,68.30
2017-08-17T00:59:48.455Z,68.80
2017-08-17T01:02:14.882Z,68.90
2017-08-17T01:04:41.395Z,68.60
2017-08-17T01:07:07.871Z,69.30
2017-08-17T01:09:38.446Z,68.80
2017-08-17T01:12:04.845Z,68.40
2017-08-17T01:14:31.331Z,68.00
2017-08-17T01:16:57.767Z,68.30
2017-08-17T01:19:24.927Z,68.20
2017-08-17T01:21:52.119Z,68.30
2017-08-17T01:24:18.558Z,68.30
2017-08-17T01:26:44.994Z,68.20
2017-08-17T01:29:11.427Z,67.90
2017-08-17T01:31:37.877Z,68.00
2017-08-17T01:34:04.331Z,68.00
2017-08-17T01:36:31.526Z,67.70
2017-08-17T01:38:57.986Z,67.60
2017-08-17T01:41:24.463Z,67.00
2017-08-17T01:43:51.642Z,66.30
2017-08-17T01:46:18.106Z,66.30
2017-08-17T01:48:48.368Z,66.60
2017-08-17T01:51:15.735Z,66.60
2017-08-17T01:53:42.195Z,66.60
2017-08-17T01:56:08.667Z,67.20
2017-08-17T01:58:35.119Z,67.90
2017-08-17T02:01:02.281Z,67.40
2017-08-17T02:03:28.724Z,67.20
2017-08-17T02:05:55.166Z,66.60
2017-08-17T02:08:21.579Z,68.20
2017-08-17T02:10:48.038Z,67.70
2017-08-17T02:13:14.462Z,66.70
2017-08-17T02:15:40.863Z,66.90
2017-08-17T02:18:07.283Z,67.40
2017-08-17T02:20:33.698Z,67.00
2017-08-17T02:23:00.098Z,67.50
2017-08-17T02:25:26.499Z,67.50
2017-08-17T02:27:53.642Z,67.80
2017-08-17T02:30:20.794Z,68.30
2017-08-17T02:32:51.690Z,67.60
2017-08-17T02:35:18.111Z,67.70
2017-08-17T02:37:44.570Z,68.00
2017-08-17T02:40:10.979Z,68.10
2017-08-17T02:42:37.411Z,68.10
2017-08-17T02:45:03.820Z,68.00
2017-08-17T02:47:30.210Z,68.10
2017-08-17T02:49:56.611Z,68.00
2017-08-17T02:52:23.012Z,67.60
2017-08-17T02:54:49.418Z,67.50
2017-08-17T02:57:15.815Z,67.10
2017-08-17T02:59:48.872Z,68.70
2017-08-17T03:02:15.595Z,69.30
2017-08-17T03:04:42.747Z,70.20
2017-08-17T03:07:09.899Z,70.10
2017-08-17T03:09:36.305Z,70.10
2017-08-17T03:12:02.710Z,69.40
2017-08-17T03:14:29.119Z,69.50
2017-08-17T03:16:55.522Z,69.20
2017-08-17T03:19:22.698Z,69.30
2017-08-17T03:21:49.135Z,69.20
2017-08-17T03:24:15.539Z,70.00
2017-08-17T03:26:48.721Z,70.10
2017-08-17T03:29:16.122Z,70.10
2017-08-17T03:31:42.522Z,69.90
2017-08-17T03:34:08.948Z,70.20
2017-08-17T03:36:36.095Z,70.60
2017-08-17T03:39:03.326Z,70.70
2017-08-17T03:41:29.748Z,70.20
2017-08-17T03:43:56.147Z,69.80
2017-08-17T03:46:22.545Z,68.90
2017-08-17T03:48:49.699Z,68.80
2017-08-17T03:51:16.822Z,69.60
2017-08-17T03:53:47.595Z,69.60
2017-08-17T03:56:15.023Z,70.20
2017-08-17T03:58:41.448Z,70.00
2017-08-17T04:01:07.891Z,69.70
2017-08-17T04:03:35.048Z,69.20
2017-08-17T04:06:01.439Z,69.60
2017-08-17T04:08:27.850Z,69.70
2017-08-17T04:10:54.247Z,69.60
2017-08-17T04:13:21.376Z,69.00
2017-08-17T04:15:47.780Z,69.50
2017-08-17T04:18:14.222Z,69.20
2017-08-17T04:20:42.888Z,69.80
2017-08-17T04:23:10.327Z,70.20
2017-08-17T04:25:36.763Z,70.20
2017-08-17T04:28:03.154Z,70.40
2017-08-17T04:30:29.598Z,70.60
2017-08-17T04:32:56.759Z,70.90
2017-08-17T04:35:23.151Z,70.30
2017-08-17T04:37:49.551Z,70.10
2017-08-17T04:40:15.939Z,70.60
2017-08-17T04:42:43.079Z,69.90
2017-08-17T04:45:09.474Z,69.80
2017-08-17T04:47:39.843Z,69.60
2017-08-17T04:50:06.287Z,70.40
2017-08-17T04:52:33.468Z,70.30
2017-08-17T04:54:59.868Z,70.20
2017-08-17T04:57:49.440Z,70.40
2017-08-17T05:00:15.846Z,69.70
2017-08-17T05:02:42.311Z,70.00
2017-08-17T05:05:09.503Z,71.20
2017-08-17T05:07:35.918Z,70.70
2017-08-17T05:10:02.348Z,71.20
2017-08-17T05:12:28.773Z,70.80
2017-08-17T05:14:55.231Z,70.90
2017-08-17T05:17:21.631Z,70.90
2017-08-17T05:19:48.818Z,71.70
2017-08-17T05:22:15.224Z,71.20
2017-08-17T05:24:42.363Z,71.80
2017-08-17T05:27:09.538Z,72.20
2017-08-17T05:29:35.939Z,72.20
2017-08-17T05:32:03.954Z,72.30
2017-08-17T05:34:30.367Z,72.10
2017-08-17T05:36:57.642Z,72.30
2017-08-17T05:39:24.075Z,72.20
2017-08-17T05:41:50.507Z,72.30
2017-08-17T05:44:16.894Z,71.90
2017-08-17T05:46:43.314Z,72.40
2017-08-17T05:49:09.694Z,70.80
2017-08-17T05:51:42.214Z,72.20
2017-08-17T05:54:08.898Z,73.00
2017-08-17T05:56:35.378Z,73.10
2017-08-17T05:59:01.766Z,72.50
2017-08-17T06:01:28.230Z,72.30
2017-08-17T06:03:54.645Z,71.60
2017-08-17T06:06:21.065Z,71.50
2017-08-17T06:08:47.475Z,71.30
2017-08-17T06:11:14.659Z,72.20
2017-08-17T06:13:41.879Z,71.50
2017-08-17T06:16:09.010Z,70.40
2017-08-17T06:18:35.406Z,69.80
2017-08-17T06:21:01.839Z,70.30
2017-08-17T06:23:28.221Z,69.90
2017-08-17T06:25:55.348Z,69.00
2017-08-17T06:28:21.754Z,68.80
2017-08-17T06:30:48.262Z,67.80
2017-08-17T06:33:14.654Z,66.50
2017-08-17T06:35:41.060Z,66.80
2017-08-17T06:38:07.483Z,66.50
2017-08-17T06:40:33.911Z,63.50
2017-08-17T06:43:00.330Z,62.50
2017-08-17T06:45:26.760Z,62.20
2017-08-17T06:47:53.168Z,61.80
2017-08-17T06:50:19.579Z,61.80
2017-08-17T06:52:45.994Z,60.70
2017-08-17T06:55:12.409Z,59.40
2017-08-17T06:57:38.806Z,59.80
2017-08-17T07:00:05.974Z,61.00
2017-08-17T07:02:32.427Z,60.60
2017-08-17T07:04:58.815Z,60.40
2017-08-17T07:07:25.949Z,60.60
2017-08-17T07:09:52.361Z,59.90
2017-08-17T07:12:18.774Z,60.40
2017-08-17T07:14:45.176Z,60.30
2017-08-17T07:17:12.339Z,61.10
2017-08-17T07:19:38.750Z,61.00
2017-08-17T07:22:05.891Z,61.70
2017-08-17T07:24:32.329Z,61.70
2017-08-17T07:26:59.512Z,61.40
2017-08-17T07:29:25.935Z,61.30
2017-08-17T07:31:52.363Z,61.00
2017-08-17T07:34:18.817Z,61.60
2017-08-17T07:36:45.314Z,61.40
2017-08-17T07:39:12.515Z,60.70
2017-08-17T07:41:38.938Z,60.30
2017-08-17T07:44:05.364Z,60.20
2017-08-17T07:46:31.763Z,59.80
2017-08-17T07:48:58.923Z,58.80
2017-08-17T07:51:25.373Z,58.70
2017-08-17T07:53:51.786Z,58.50
2017-08-17T07:56:18.299Z,58.90
2017-08-17T07:58:59.635Z,56.20
2017-08-17T08:01:26.030Z,55.40
2017-08-17T08:03:53.187Z,53.90
2017-08-17T08:06:20.343Z,53.60
2017-08-17T08:08:47.497Z,54.00
2017-08-17T08:11:13.936Z,54.00
2017-08-17T08:13:40.333Z,52.90
2017-08-17T08:16:06.746Z,52.30
2017-08-17T08:18:33.154Z,52.00
2017-08-17T08:20:59.555Z,51.70
2017-08-17T08:23:25.990Z,51.70
2017-08-17T08:25:53.112Z,52.10
2017-08-17T08:28:20.603Z,52.10
2017-08-17T08:30:47.757Z,52.50
2017-08-17T08:33:14.151Z,52.50
2017-08-17T08:35:40.551Z,51.00
2017-08-17T08:38:06.978Z,49.70
2017-08-17T08:40:33.389Z,49.00
2017-08-17T08:42:59.795Z,49.50
2017-08-17T08:45:30.273Z,48.00
2017-08-17T08:47:57.880Z,49.70
2017-08-17T08:50:24.271Z,49.70
2017-08-17T08:52:50.663Z,46.40
2017-08-17T08:55:17.824Z,46.80
2017-08-17T08:57:44.214Z,46.80
2017-08-17T09:00:10.610Z,48.00
2017-08-17T09:02:37.017Z,45.90
2017-08-17T09:05:04.239Z,46.90
2017-08-17T09:07:30.636Z,46.90
2017-08-17T09:09:57.030Z,47.80
2017-08-17T09:12:24.171Z,45.60
2017-08-17T09:14:51.318Z,44.40
2017-08-17T09:17:18.474Z,43.80
2017-08-17T09:19:46.535Z,42.30
2017-08-17T09:22:12.941Z,42.30
2017-08-17T09:24:39.324Z,42.30
2017-08-17T09:27:05.782Z,40.60
2017-08-17T09:29:32.180Z,40.30
2017-08-17T09:32:01.397Z,41.90
2017-08-17T09:34:29.711Z,40.90
2017-08-17T09:36:56.096Z,41.40
2017-08-17T09:39:22.537Z,43.20
2017-08-17T09:41:49.034Z,42.30
2017-08-17T09:44:15.783Z,42.10
2017-08-17T09:46:47.963Z,41.30
2017-08-17T09:49:15.133Z,40.70
2017-08-17T09:51:42.535Z,40.70
2017-08-17T09:54:08.943Z,39.00
2017-08-17T09:56:35.359Z,41.10
2017-08-17T09:59:01.781Z,40.30
2017-08-17T10:01:28.159Z,40.40
2017-08-17T10:03:54.551Z,40.10
2017-08-17T10:06:20.947Z,38.40
2017-08-17T10:08:47.376Z,38.60
2017-08-17T10:11:13.763Z,39.50
2017-08-17T10:13:40.149Z,39.70
2017-08-17T10:16:07.310Z,40.20
2017-08-17T10:18:33.716Z,40.00
2017-08-17T10:21:00.123Z,40.10
2017-08-17T10:23:26.524Z,41.00
2017-08-17T10:25:53.100Z,37.40
2017-08-17T10:28:19.515Z,37.90
2017-08-17T10:30:45.962Z,37.60
2017-08-17T10:33:13.814Z,38.00
2017-08-17T10:35:40.586Z,35.80
2017-08-17T10:38:08.119Z,36.90
2017-08-17T10:40:35.167Z,36.90
2017-08-17T10:43:01.582Z,37.50
2017-08-17T10:45:27.985Z,37.20
2017-08-17T10:47:55.157Z,36.80
2017-08-17T10:50:21.591Z,36.70
2017-08-17T10:52:48.028Z,36.70
2017-08-17T10:55:14.489Z,37.40
2017-08-17T10:57:40.911Z,36.80
2017-08-17T11:00:07.831Z,36.90
2017-08-17T11:02:34.268Z,36.60
2017-08-17T11:05:01.247Z,36.60
2017-08-17T11:07:27.671Z,36.80
2017-08-17T11:09:54.104Z,37.60
2017-08-17T11:12:20.722Z,37.90
2017-08-17T11:14:47.153Z,37.70
2017-08-17T11:17:13.557Z,38.70
2017-08-17T11:19:39.962Z,38.20
2017-08-17T11:22:06.368Z,38.10
2017-08-17T11:24:32.770Z,37.60
2017-08-17T11:26:59.898Z,39.20
2017-08-17T11:29:26.321Z,39.20
2017-08-17T11:31:52.714Z,38.40
2017-08-17T11:34:19.175Z,38.20
2017-08-17T11:36:45.580Z,38.40
2017-08-17T11:39:11.967Z,38.20
2017-08-17T11:41:38.375Z,38.70
2017-08-17T11:44:04.783Z,38.40
2017-08-17T11:46:31.171Z,39.00
2017-08-17T11:48:57.582Z,39.80
2017-08-17T11:51:23.926Z,39.00
2017-08-17T11:53:50.319Z,38.30
2017-08-17T11:56:16.794Z,38.80
2017-08-17T11:58:43.252Z,38.80
2017-08-17T12:01:09.646Z,38.20
2017-08-17T12:03:36.047Z,38.10
2017-08-17T12:06:02.455Z,36.00
2017-08-17T12:08:29.582Z,34.10
2017-08-17T12:10:56.005Z,34.10
2017-08-17T12:13:22.419Z,33.10
2017-08-17T12:15:48.831Z,33.10
2017-08-17T12:18:15.440Z,33.20
2017-08-17T12:20:41.818Z,32.00
2017-08-17T12:23:08.222Z,31.80
2017-08-17T12:25:34.621Z,32.50
2017-08-17T12:28:01.011Z,32.40
2017-08-17T12:30:27.422Z,32.50
2017-08-17T12:32:56.872Z,32.10
2017-08-17T12:35:23.274Z,33.30
2017-08-17T12:37:50.174Z,31.70
2017-08-17T12:40:16.585Z,32.60
2017-08-17T12:42:43.003Z,30.30
2017-08-17T12:45:09.435Z,29.90
2017-08-17T12:47:35.807Z,29.90
2017-08-17T12:50:02.241Z,30.00
2017-08-17T12:52:28.650Z,30.20
2017-08-17T12:54:55.080Z,29.60
2017-08-17T12:57:21.526Z,28.70
2017-08-17T12:59:47.906Z,29.30
2017-08-17T13:02:14.285Z,31.30
2017-08-17T13:04:40.698Z,31.40
2017-08-17T13:07:07.082Z,30.30
2017-08-17T13:09:33.505Z,30.70
2017-08-17T13:11:59.923Z,30.20
2017-08-17T13:14:26.314Z,30.30
2017-08-17T13:16:52.729Z,30.60
2017-08-17T13:19:19.141Z,31.10
2017-08-17T13:21:46.282Z,31.40
2017-08-17T13:24:13.422Z,31.40
2017-08-17T13:26:39.803Z,31.40
2017-08-17T13:29:06.199Z,30.40
2017-08-17T13:31:32.626Z,31.10
2017-08-17T13:34:12.442Z,31.10
2017-08-17T13:36:38.839Z,30.70
2017-08-17T13:39:05.270Z,31.60
2017-08-17T13:41:31.747Z,30.90
2017-08-17T13:43:58.159Z,31.90
2017-08-17T13:46:24.562Z,32.00
2017-08-17T13:48:50.951Z,32.10
2017-08-17T13:51:17.370Z,32.70
2017-08-17T13:53:43.742Z,32.70
2017-08-17T13:56:10.227Z,30.90
2017-08-17T13:58:36.640Z,31.30
2017-08-17T14:01:03.054Z,30.10
2017-08-17T14:03:29.458Z,30.50
2017-08-17T14:05:55.854Z,31.30
2017-08-17T14:08:22.265Z,30.60
2017-08-17T14:10:48.670Z,30.20
2017-08-17T14:13:15.066Z,30.00
2017-08-17T14:15:41.471Z,32.10
2017-08-17T14:18:07.865Z,30.90
2017-08-17T14:20:34.244Z,31.00
2017-08-17T14:23:00.657Z,31.20
2017-08-17T14:25:27.051Z,32.00
2017-08-17T14:27:53.438Z,32.20
2017-08-17T14:30:19.840Z,32.70
2017-08-17T14:32:46.991Z,32.10
2017-08-17T14:35:14.135Z,31.20
2017-08-17T14:37:40.523Z,31.20
2017-08-17T14:40:06.946Z,30.00
2017-08-17T14:42:33.343Z,31.10
2017-08-17T14:44:59.750Z,32.00
2017-08-17T14:47:26.196Z,32.00
2017-08-17T14:49:53.369Z,31.30
2017-08-17T14:52:19.789Z,31.90
2017-08-17T14:54:46.205Z,31.00
2017-08-17T14:57:13.334Z,30.80
2017-08-17T14:59:39.754Z,30.80
2017-08-17T15:02:06.243Z,30.40
2017-08-17T15:04:32.634Z,30.40
2017-08-17T15:06:59.026Z,30.00
2017-08-17T15:09:25.503Z,30.50
2017-08-17T15:11:51.886Z,30.20
2017-08-17T15:14:18.310Z,30.50
2017-08-17T15:16:44.707Z,31.10
2017-08-17T15:19:11.098Z,31.20
2017-08-17T15:21:37.505Z,31.30
2017-08-17T15:24:03.909Z,31.40
2017-08-17T15:26:30.343Z,31.80
2017-08-17T15:28:56.746Z,31.60
2017-08-17T15:31:23.132Z,32.30
2017-08-17T15:33:50.270Z,31.00
2017-08-17T15:36:16.647Z,31.00
2017-08-17T15:38:43.055Z,31.30
2017-08-17T15:41:09.490Z,31.90
2017-08-17T15:43:35.964Z,31.70
2017-08-17T15:46:02.354Z,32.30
2017-08-17T15:48:28.751Z,32.20
2017-08-17T15:50:55.170Z,32.80
2017-08-17T15:53:21.630Z,32.50
2017-08-17T15:55:48.046Z,32.20
2017-08-17T15:58:14.429Z,33.60
2017-08-17T16:00:40.849Z,32.00
2017-08-17T16:03:07.263Z,31.70
2017-08-17T16:05:34.406Z,32.10
2017-08-17T16:08:00.798Z,32.60
2017-08-17T16:10:27.206Z,32.10
2017-08-17T16:12:54.061Z,32.00
2017-08-17T16:15:20.525Z,32.40
2017-08-17T16:17:46.926Z,32.60
2017-08-17T16:20:13.310Z,32.60
2017-08-17T16:22:39.702Z,32.60
2017-08-17T16:25:06.090Z,32.50
2017-08-17T16:27:33.254Z,33.70
2017-08-17T16:29:59.637Z,33.70
2017-08-17T16:32:26.070Z,34.30
2017-08-17T16:34:52.471Z,34.60
2017-08-17T16:37:18.870Z,35.00
2017-08-17T16:39:46.022Z,35.80
2017-08-17T16:42:13.190Z,35.60
2017-08-17T16:44:39.574Z,35.60
2017-08-17T16:47:05.974Z,36.20
2017-08-17T16:49:32.382Z,35.60
2017-08-17T16:51:58.798Z,35.70
2017-08-17T16:54:25.935Z,34.60
2017-08-17T16:56:52.355Z,34.50
2017-08-17T16:59:18.751Z,33.70
2017-08-17T17:01:45.157Z,34.00
2017-08-17T17:04:11.553Z,34.20
2017-08-17T17:06:37.945Z,34.50
2017-08-17T17:09:04.352Z,34.80
2017-08-17T17:11:30.729Z,34.70
2017-08-17T17:13:57.202Z,35.00
2017-08-17T17:16:24.439Z,35.30
2017-08-17T17:18:50.846Z,35.30
2017-08-17T17:21:32.186Z,35.60
2017-08-17T17:23:58.610Z,35.70
2017-08-17T17:26:25.064Z,35.90
2017-08-17T17:28:51.467Z,36.10
2017-08-17T17:31:17.859Z,36.40
2017-08-17T17:33:44.251Z,36.30
2017-08-17T17:36:11.374Z,36.40
2017-08-17T17:38:37.770Z,36.30
2017-08-17T17:41:04.159Z,36.30
2017-08-17T17:43:31.299Z,36.80
2017-08-17T17:45:57.688Z,36.80
2017-08-17T17:48:24.095Z,36.80
2017-08-17T17:50:50.537Z,36.90
2017-08-17T17:53:16.930Z,37.20
2017-08-17T17:55:43.336Z,37.40
2017-08-17T17:58:09.742Z,37.70
2017-08-17T18:00:36.162Z,37.50
2017-08-17T18:03:02.538Z,37.50
2017-08-17T18:05:28.930Z,37.40
2017-08-17T18:07:55.327Z,37.40
2017-08-17T18:10:21.734Z,37.30
2017-08-17T18:12:48.152Z,37.50
2017-08-17T18:15:14.559Z,37.50
2017-08-17T18:17:41.027Z,37.50
2017-08-17T18:20:07.435Z,37.70
2017-08-17T18:22:33.878Z,38.30
2017-08-17T18:25:00.290Z,38.50
2017-08-17T18:27:26.689Z,38.90
2017-08-17T18:29:53.092Z,39.80
2017-08-17T18:32:19.483Z,39.80
2017-08-17T18:34:45.893Z,40.80
2017-08-17T18:37:13.024Z,42.70
2017-08-17T18:39:39.411Z,42.20
2017-08-17T18:42:05.819Z,42.10
2017-08-17T18:44:32.328Z,42.10
2017-08-17T18:46:58.730Z,41.90
2017-08-17T18:49:25.150Z,41.90
2017-08-17T18:52:27.871Z,41.90
2017-08-17T18:54:54.300Z,42.40
2017-08-17T18:57:20.711Z,42.60
2017-08-17T18:59:47.119Z,43.50
2017-08-17T19:02:13.524Z,43.70
2017-08-17T19:04:40.692Z,44.00
2017-08-17T19:07:07.071Z,44.00
2017-08-17T19:09:33.480Z,44.30
2017-08-17T19:11:59.922Z,44.10
2017-08-17T19:14:26.339Z,44.20
2017-08-17T19:16:52.769Z,44.20
2017-08-17T19:19:19.166Z,44.40
2017-08-17T19:21:46.315Z,45.10
2017-08-17T19:24:12.820Z,45.10
2017-08-17T19:26:39.298Z,45.20
2017-08-17T19:29:05.763Z,45.80
2017-08-17T19:31:32.209Z,45.80
2017-08-17T19:33:58.776Z,45.50
2017-08-17T19:36:25.304Z,45.90
2017-08-17T19:38:51.806Z,45.30
2017-08-17T19:41:19.053Z,45.80
2017-08-17T19:43:45.538Z,45.80
2017-08-17T19:46:12.031Z,46.70
2017-08-17T19:48:38.619Z,47.70
2017-08-17T19:51:05.266Z,48.20
2017-08-17T19:53:31.818Z,48.70
2017-08-17T19:55:58.344Z,48.50
2017-08-17T19:58:24.783Z,48.90
2017-08-17T20:00:51.196Z,49.00
2017-08-17T20:03:18.346Z,50.30
2017-08-17T20:05:44.764Z,50.30
2017-08-17T20:08:11.178Z,50.00
2017-08-17T20:10:37.568Z,50.50
2017-08-17T20:13:04.003Z,50.40
2017-08-17T20:15:30.417Z,50.20
2017-08-17T20:17:57.571Z,50.10
2017-08-17T20:20:24.729Z,49.60
2017-08-17T20:22:51.854Z,49.20
2017-08-17T20:25:18.239Z,49.20
2017-08-17T20:27:44.670Z,48.60
2017-08-17T20:30:11.111Z,47.70
2017-08-17T20:32:37.522Z,47.60
2017-08-17T20:35:03.945Z,49.10
2017-08-17T20:37:30.342Z,52.60
2017-08-17T20:39:56.753Z,53.60
2017-08-17T20:42:23.151Z,53.50
2017-08-17T20:44:49.575Z,53.30
2017-08-17T20:47:15.986Z,53.30
2017-08-17T20:49:42.403Z,54.10
2017-08-17T20:52:08.841Z,54.20
2017-08-17T20:54:35.230Z,54.20
2017-08-17T20:57:01.651Z,53.90
2017-08-17T20:59:28.058Z,53.80
2017-08-17T21:01:55.191Z,53.70
2017-08-17T21:04:21.598Z,53.60
2017-08-17T21:06:48.026Z,53.00
2017-08-17T21:09:14.429Z,53.10
2017-08-17T21:11:40.862Z,53.00
2017-08-17T21:14:07.247Z,53.30
2017-08-17T21:16:33.651Z,53.20
2017-08-17T21:19:00.058Z,52.90
2017-08-17T21:21:26.466Z,53.10
2017-08-17T21:23:52.883Z,53.30
2017-08-17T21:26:19.316Z,54.90
2017-08-17T21:28:45.754Z,54.70
2017-08-17T21:31:12.163Z,54.00
2017-08-17T21:33:38.576Z,54.10
2017-08-17T21:36:05.006Z,55.10
2017-08-17T21:38:31.398Z,55.10
2017-08-17T21:40:57.807Z,54.90
2017-08-17T21:43:24.236Z,54.50
2017-08-17T21:45:50.647Z,54.30
2017-08-17T21:48:17.067Z,54.30
2017-08-17T21:50:43.477Z,54.30
2017-08-17T21:53:10.599Z,55.20
2017-08-17T21:55:37.060Z,54.60
2017-08-17T21:58:04.200Z,56.00
2017-08-17T22:00:31.349Z,56.90
2017-08-17T22:02:58.502Z,57.00
2017-08-17T22:05:25.656Z,56.80
2017-08-17T22:07:52.046Z,56.70
2017-08-17T22:10:18.430Z,57.30
2017-08-17T22:12:44.845Z,57.10
2017-08-17T22:15:11.986Z,58.90
2017-08-17T22:17:38.435Z,58.40
2017-08-17T22:20:05.556Z,58.30
2017-08-17T22:22:31.957Z,58.30
2017-08-17T22:24:58.359Z,57.90
2017-08-17T22:27:24.792Z,57.60
2017-08-17T22:29:51.194Z,57.80
2017-08-17T22:32:17.608Z,57.90
2017-08-17T22:34:44.014Z,58.60
2017-08-17T22:37:10.482Z,58.60
2017-08-17T22:39:36.881Z,59.20
2017-08-17T22:42:03.274Z,59.10
2017-08-17T22:44:29.695Z,59.50
2017-08-17T22:46:56.858Z,58.60
2017-08-17T22:49:23.272Z,58.50
2017-08-17T22:51:49.711Z,59.00
2017-08-17T22:54:16.117Z,58.70
2017-08-17T22:56:42.517Z,59.40
2017-08-17T22:59:08.927Z,59.40
2017-08-17T23:01:36.151Z,60.60
2017-08-17T23:04:02.606Z,60.60
2017-08-17T23:06:29.749Z,61.60
2017-08-17T23:08:56.883Z,60.40
2017-08-17T23:11:23.298Z,60.30
2017-08-17T23:13:49.718Z,60.20
2017-08-17T23:16:16.190Z,60.60
2017-08-17T23:18:42.578Z,59.90
2017-08-17T23:21:08.998Z,60.20
2017-08-17T23:23:35.418Z,59.80
2017-08-17T23:26:01.810Z,59.50
2017-08-17T23:28:28.234Z,59.20
2017-08-17T23:30:54.647Z,59.50
2017-08-17T23:33:21.030Z,59.60
2017-08-17T23:35:48.184Z,60.50
2017-08-17T23:38:15.439Z,60.90
2017-08-17T23:40:42.651Z,60.90
2017-08-17T23:43:09.086Z,60.90
2017-08-17T23:45:35.491Z,61.00
2017-08-17T23:48:01.927Z,60.70
2017-08-17T23:50:28.319Z,60.50
2017-08-17T23:52:55.479Z,60.80
2017-08-17T23:55:22.621Z,61.20
2017-08-17T23:57:49.798Z,62.00
